Time;durP1;ratioP1;P1;durP2;ratioP2;P2;SDS_P1;SDS_P2;PMS_P1;PMS_P2;Temp;Humidity;BMP_temperature;BMP_pressure;BME280_temperature;BME280_humidity;BME280_pressure;Samples;Min_cycle;Max_cycle;Signal;HPM_P1;HPM_P2
2021/10/11 00:00:22;;;;;;;20.67;9.47;;;;;;;;;;5019024;28;20018;-63
2021/10/11 00:02:48;;;;;;;12.77;9.17;;;;;;;;;;5019208;28;20052;-60
2021/10/11 00:05:13;;;;;;;19.57;8.97;;;;;;;;;;5020657;28;20029;-64
2021/10/11 00:07:40;;;;;;;16.43;9.23;;;;;;;;;;5019346;28;20060;-63
2021/10/11 00:10:06;;;;;;;17.70;9.20;;;;;;;;;;5021918;28;20013;-63
2021/10/11 00:12:31;;;;;;;13.13;8.80;;;;;;;;;;5019007;28;20103;-62
2021/10/11 00:14:57;;;;;;;18.73;9.77;;;;;;;;;;5021396;28;20152;-62
2021/10/11 00:17:22;;;;;;;14.57;9.07;;;;;;;;;;5018402;28;20028;-63
2021/10/11 00:19:50;;;;;;;16.63;9.67;;;;;;;;;;5018619;28;20069;-63
2021/10/11 00:22:16;;;;;;;14.67;10.30;;;;;;;;;;5023251;28;20032;-63
2021/10/11 00:24:41;;;;;;;12.83;8.97;;;;;;;;;;5027378;28;20018;-63
2021/10/11 00:27:07;;;;;;;16.07;9.07;;;;;;;;;;5023971;28;20021;-63
2021/10/11 00:29:32;;;;;;;12.83;9.07;;;;;;;;;;5022074;28;20507;-63
2021/10/11 00:31:57;;;;;;;16.70;9.00;;;;;;;;;;5017669;28;20030;-63
2021/10/11 00:34:22;;;;;;;11.77;8.40;;;;;;;;;;5026260;28;20490;-63
2021/10/11 00:36:48;;;;;;;16.80;9.30;;;;;;;;;;5027297;28;20083;-63
2021/10/11 00:39:13;;;;;;;16.27;8.30;;;;;;;;;;5022425;28;20094;-63
2021/10/11 00:41:38;;;;;;;12.27;7.87;;;;;;;;;;5024244;28;20021;-63
2021/10/11 00:44:04;;;;;;;15.50;8.80;;;;;;;;;;5020520;28;20041;-63
2021/10/11 00:46:29;;;;;;;14.57;8.90;;;;;;;;;;5023983;28;20022;-63
2021/10/11 00:48:54;;;;;;;12.90;7.83;;;;;;;;;;5022775;28;20460;-63
2021/10/11 00:51:20;;;;;;;17.87;8.27;;;;;;;;;;5025135;28;20057;-64
2021/10/11 00:53:45;;;;;;;13.97;8.23;;;;;;;;;;5023420;28;20026;-63
2021/10/11 00:56:10;;;;;;;14.63;8.00;;;;;;;;;;5022249;28;20379;-63
2021/10/11 00:58:36;;;;;;;14.93;8.10;;;;;;;;;;5025050;28;20109;-63
2021/10/11 01:01:01;;;;;;;13.73;7.50;;;;;;;;;;5022556;28;20037;-62
2021/10/11 01:03:26;;;;;;;16.53;8.30;;;;;;;;;;5022325;28;20021;-62
2021/10/11 01:05:52;;;;;;;14.33;9.30;;;;;;;;;;5021251;28;20037;-61
2021/10/11 01:08:17;;;;;;;12.30;8.10;;;;;;;;;;5028307;28;20112;-61
2021/10/11 01:10:46;;;;;;;15.93;8.43;;;;;;;;;;5022072;28;20025;-62
2021/10/11 01:13:12;;;;;;;12.43;8.00;;;;;;;;;;5025025;28;20435;-62
2021/10/11 01:15:37;;;;;;;16.07;8.73;;;;;;;;;;5023522;28;20018;-62
2021/10/11 01:18:02;;;;;;;11.90;8.03;;;;;;;;;;5021264;28;20028;-61
2021/10/11 01:20:28;;;;;;;12.47;7.27;;;;;;;;;;5021920;28;20026;-61
2021/10/11 01:22:54;;;;;;;11.47;7.67;;;;;;;;;;5026032;28;20033;-61
2021/10/11 01:25:19;;;;;;;10.47;7.77;;;;;;;;;;5024397;28;20030;-62
2021/10/11 01:27:45;;;;;;;12.90;6.87;;;;;;;;;;5024459;28;20031;-62
2021/10/11 01:30:12;;;;;;;12.30;7.57;;;;;;;;;;5021892;28;20017;-60
2021/10/11 01:32:38;;;;;;;14.03;7.43;;;;;;;;;;5022107;28;20038;-62
2021/10/11 01:35:04;;;;;;;11.27;7.83;;;;;;;;;;5021933;28;20025;-62
2021/10/11 01:37:29;;;;;;;15.97;7.63;;;;;;;;;;5020408;28;20088;-62
2021/10/11 01:39:54;;;;;;;15.20;8.07;;;;;;;;;;5025715;28;20109;-62
2021/10/11 01:42:19;;;;;;;12.03;7.37;;;;;;;;;;5022887;28;20415;-62
2021/10/11 01:44:45;;;;;;;24.77;7.97;;;;;;;;;;5023944;28;20133;-61
2021/10/11 01:47:10;;;;;;;14.07;7.70;;;;;;;;;;5022975;28;20079;-62
2021/10/11 01:49:35;;;;;;;15.27;7.47;;;;;;;;;;5021935;28;20141;-62
2021/10/11 01:52:00;;;;;;;13.63;7.00;;;;;;;;;;5021228;28;20033;-62
2021/10/11 01:54:26;;;;;;;16.87;8.23;;;;;;;;;;5023556;28;20487;-62
2021/10/11 01:56:51;;;;;;;10.20;6.90;;;;;;;;;;5021821;28;20030;-62
2021/10/11 01:59:16;;;;;;;10.07;7.13;;;;;;;;;;5019672;28;20075;-62
2021/10/11 02:01:41;;;;;;;12.13;7.57;;;;;;;;;;5020929;28;20476;-63
2021/10/11 02:04:07;;;;;;;10.93;6.70;;;;;;;;;;5026026;28;20072;-63
2021/10/11 02:06:32;;;;;;;12.40;7.03;;;;;;;;;;5024082;28;20559;-63
2021/10/11 02:08:57;;;;;;;13.03;7.33;;;;;;;;;;5022218;28;20027;-63
2021/10/11 02:11:23;;;;;;;14.37;8.07;;;;;;;;;;5020346;28;20380;-63
2021/10/11 02:13:48;;;;;;;10.77;6.63;;;;;;;;;;5022022;28;20057;-61
2021/10/11 02:16:13;;;;;;;13.20;8.10;;;;;;;;;;5021249;28;20451;-60
2021/10/11 02:18:38;;;;;;;12.73;6.93;;;;;;;;;;5019822;28;20064;-62
2021/10/11 02:21:04;;;;;;;10.13;6.60;;;;;;;;;;5022120;28;20091;-62
2021/10/11 02:23:29;;;;;;;12.70;6.30;;;;;;;;;;5021815;28;20394;-62
2021/10/11 02:25:54;;;;;;;13.07;6.50;;;;;;;;;;5021836;28;20494;-62
2021/10/11 02:28:20;;;;;;;12.13;6.93;;;;;;;;;;5020052;28;20076;-64
2021/10/11 02:30:45;;;;;;;14.13;7.80;;;;;;;;;;5022693;28;20467;-61
2021/10/11 02:33:10;;;;;;;14.00;7.27;;;;;;;;;;5021186;28;20379;-62
2021/10/11 02:35:36;;;;;;;10.07;6.67;;;;;;;;;;5023865;28;20471;-62
2021/10/11 02:38:01;;;;;;;10.47;7.33;;;;;;;;;;5021148;28;20032;-63
2021/10/11 02:40:26;;;;;;;10.87;7.57;;;;;;;;;;5020620;28;20729;-63
2021/10/11 02:42:51;;;;;;;13.23;7.77;;;;;;;;;;5024911;28;20108;-63
2021/10/11 02:45:17;;;;;;;12.27;7.40;;;;;;;;;;5022261;28;20025;-63
2021/10/11 02:47:42;;;;;;;14.20;7.63;;;;;;;;;;5020789;28;20075;-63
2021/10/11 02:50:07;;;;;;;11.07;7.10;;;;;;;;;;5025396;28;20388;-63
2021/10/11 02:52:33;;;;;;;13.50;8.80;;;;;;;;;;5020932;28;20483;-63
2021/10/11 02:54:59;;;;;;;11.03;6.23;;;;;;;;;;5020183;28;20109;-61
2021/10/11 02:57:24;;;;;;;11.83;6.87;;;;;;;;;;5021432;28;20087;-61
2021/10/11 02:59:49;;;;;;;13.27;6.73;;;;;;;;;;5023224;28;20026;-62
2021/10/11 03:02:15;;;;;;;12.37;6.70;;;;;;;;;;5021710;28;20040;-62
2021/10/11 03:04:40;;;;;;;12.33;6.27;;;;;;;;;;5020772;28;20448;-63
2021/10/11 03:07:05;;;;;;;9.57;6.67;;;;;;;;;;5023261;28;20033;-61
2021/10/11 03:09:30;;;;;;;10.70;6.37;;;;;;;;;;5020322;28;20022;-61
2021/10/11 03:11:56;;;;;;;10.57;5.97;;;;;;;;;;5022102;28;20391;-62
2021/10/11 03:14:21;;;;;;;12.90;6.77;;;;;;;;;;5019925;28;20189;-62
2021/10/11 03:16:46;;;;;;;14.20;6.67;;;;;;;;;;5020763;28;20057;-61
2021/10/11 03:19:12;;;;;;;10.03;6.57;;;;;;;;;;5022230;28;20029;-63
2021/10/11 03:21:37;;;;;;;15.23;6.60;;;;;;;;;;5019540;28;20376;-61
2021/10/11 03:24:02;;;;;;;14.93;7.07;;;;;;;;;;5018504;28;20163;-61
2021/10/11 03:26:27;;;;;;;11.20;6.40;;;;;;;;;;5020280;28;20025;-61
2021/10/11 03:28:53;;;;;;;16.77;6.93;;;;;;;;;;5020998;28;20029;-62
2021/10/11 03:31:18;;;;;;;9.20;6.63;;;;;;;;;;5020242;28;20029;-63
2021/10/11 03:33:43;;;;;;;14.20;7.73;;;;;;;;;;5020553;28;20548;-62
2021/10/11 03:36:08;;;;;;;12.17;7.17;;;;;;;;;;5020136;28;20026;-62
2021/10/11 03:38:34;;;;;;;8.70;6.60;;;;;;;;;;5021146;28;20360;-62
2021/10/11 03:40:59;;;;;;;12.03;6.67;;;;;;;;;;5023132;28;20025;-62
2021/10/11 03:43:24;;;;;;;12.70;7.40;;;;;;;;;;5018753;28;20144;-63
2021/10/11 03:45:50;;;;;;;14.60;8.43;;;;;;;;;;5021103;28;20100;-62
2021/10/11 03:48:15;;;;;;;12.10;6.93;;;;;;;;;;5021257;28;20026;-62
2021/10/11 03:50:41;;;;;;;10.37;7.67;;;;;;;;;;5021427;28;20494;-63
2021/10/11 03:53:06;;;;;;;15.73;7.47;;;;;;;;;;5024637;28;20029;-63
2021/10/11 03:55:31;;;;;;;8.53;6.90;;;;;;;;;;5020606;28;20030;-63
2021/10/11 03:57:56;;;;;;;12.20;7.17;;;;;;;;;;5022130;28;20434;-62
2021/10/11 04:00:22;;;;;;;11.63;7.90;;;;;;;;;;5028952;28;20091;-62
2021/10/11 04:02:48;;;;;;;10.90;6.67;;;;;;;;;;5024899;28;20044;-62
2021/10/11 04:05:13;;;;;;;9.83;6.33;;;;;;;;;;5024027;28;20092;-63
2021/10/11 04:07:41;;;;;;;11.67;6.60;;;;;;;;;;5025561;28;20034;-61
2021/10/11 04:10:08;;;;;;;16.63;7.00;;;;;;;;;;5022995;28;20018;-64
2021/10/11 04:12:34;;;;;;;12.50;6.70;;;;;;;;;;5024023;28;20041;-63
2021/10/11 04:15:00;;;;;;;8.50;6.43;;;;;;;;;;5022685;28;20018;-63
2021/10/11 04:17:25;;;;;;;19.07;6.57;;;;;;;;;;5023637;28;20423;-60
2021/10/11 04:19:51;;;;;;;16.33;7.50;;;;;;;;;;5024695;28;20029;-62
2021/10/11 04:22:16;;;;;;;11.43;6.83;;;;;;;;;;5024004;28;20033;-62
2021/10/11 04:24:41;;;;;;;10.70;6.83;;;;;;;;;;5025299;28;20029;-62
2021/10/11 04:27:06;;;;;;;9.60;6.80;;;;;;;;;;5024476;28;20029;-62
2021/10/11 04:29:32;;;;;;;13.50;7.90;;;;;;;;;;5021985;28;20033;-63
2021/10/11 04:31:57;;;;;;;13.43;6.57;;;;;;;;;;5021612;28;20037;-63
2021/10/11 04:34:22;;;;;;;14.77;8.03;;;;;;;;;;5025063;28;20025;-63
2021/10/11 04:36:47;;;;;;;9.60;7.30;;;;;;;;;;5023873;28;20041;-63
2021/10/11 04:39:13;;;;;;;11.27;7.20;;;;;;;;;;5022578;28;20026;-61
2021/10/11 04:41:38;;;;;;;13.53;6.70;;;;;;;;;;5023038;28;20364;-63
2021/10/11 04:44:03;;;;;;;10.77;6.53;;;;;;;;;;5026064;28;20036;-63
2021/10/11 04:46:28;;;;;;;12.30;6.80;;;;;;;;;;5023744;28;20061;-60
2021/10/11 04:48:54;;;;;;;13.80;7.00;;;;;;;;;;5025029;28;20021;-61
2021/10/11 04:51:19;;;;;;;12.47;7.20;;;;;;;;;;5023407;28;20600;-63
2021/10/11 04:53:44;;;;;;;11.37;6.87;;;;;;;;;;5022485;28;20025;-62
2021/10/11 04:56:10;;;;;;;16.57;6.87;;;;;;;;;;5025963;28;20079;-62
2021/10/11 04:58:35;;;;;;;13.57;7.77;;;;;;;;;;5025438;28;20404;-61
2021/10/11 05:01:00;;;;;;;9.90;6.73;;;;;;;;;;5025693;28;20379;-62
2021/10/11 05:03:25;;;;;;;13.97;7.10;;;;;;;;;;5027141;28;20013;-61
2021/10/11 05:05:51;;;;;;;10.67;6.90;;;;;;;;;;5026155;28;20095;-60
2021/10/11 05:08:16;;;;;;;12.33;6.53;;;;;;;;;;5022663;28;20124;-62
2021/10/11 05:10:41;;;;;;;10.40;6.43;;;;;;;;;;5021078;28;20534;-66
2021/10/11 05:13:06;;;;;;;10.20;6.03;;;;;;;;;;5023149;28;20383;-60
2021/10/11 05:15:31;;;;;;;10.43;5.97;;;;;;;;;;5024808;28;20041;-60
2021/10/11 05:17:57;;;;;;;12.00;6.80;;;;;;;;;;5027178;28;20025;-60
2021/10/11 05:20:25;;;;;;;9.80;6.90;;;;;;;;;;5020060;28;20032;-58
2021/10/11 05:22:50;;;;;;;10.90;7.20;;;;;;;;;;5022759;28;20204;-57
2021/10/11 05:25:15;;;;;;;12.87;7.63;;;;;;;;;;5022861;28;20104;-61
2021/10/11 05:27:40;;;;;;;30.43;8.67;;;;;;;;;;5023014;28;20024;-60
2021/10/11 05:30:06;;;;;;;14.63;7.57;;;;;;;;;;5024238;28;20109;-60
2021/10/11 05:32:32;;;;;;;10.23;6.60;;;;;;;;;;5024679;28;20034;-60
2021/10/11 05:34:58;;;;;;;14.53;6.43;;;;;;;;;;5025224;28;20032;-60
2021/10/11 05:37:24;;;;;;;11.90;6.70;;;;;;;;;;5025312;28;20033;-59
2021/10/11 05:39:49;;;;;;;11.70;7.40;;;;;;;;;;5027929;28;20113;-61
2021/10/11 05:42:14;;;;;;;13.60;8.47;;;;;;;;;;5019604;28;20036;-58
2021/10/11 05:44:40;;;;;;;15.80;7.80;;;;;;;;;;5022949;28;20029;-59
2021/10/11 05:47:05;;;;;;;10.80;7.00;;;;;;;;;;5024667;28;20030;-58
2021/10/11 05:49:30;;;;;;;12.77;7.13;;;;;;;;;;5023286;28;20024;-59
2021/10/11 05:51:56;;;;;;;12.47;6.20;;;;;;;;;;5021990;28;20048;-60
2021/10/11 05:54:21;;;;;;;11.63;6.90;;;;;;;;;;5023257;28;20025;-60
2021/10/11 05:56:46;;;;;;;12.10;6.87;;;;;;;;;;5020673;28;20021;-58
2021/10/11 05:59:11;;;;;;;11.40;6.43;;;;;;;;;;5021963;28;20021;-59
2021/10/11 06:01:37;;;;;;;13.10;6.60;;;;;;;;;;5020909;28;20097;-60
2021/10/11 06:04:02;;;;;;;15.10;6.87;;;;;;;;;;5023537;28;20450;-59
2021/10/11 06:06:27;;;;;;;12.23;6.70;;;;;;;;;;5020844;28;20021;-58
2021/10/11 06:08:53;;;;;;;10.73;7.17;;;;;;;;;;5022595;28;20033;-60
2021/10/11 06:11:19;;;;;;;11.83;6.83;;;;;;;;;;5020478;28;20033;-60
2021/10/11 06:13:45;;;;;;;10.53;6.57;;;;;;;;;;5021164;28;20460;-58
2021/10/11 06:16:10;;;;;;;16.83;7.80;;;;;;;;;;5019451;28;20061;-58
2021/10/11 06:18:35;;;;;;;12.53;7.33;;;;;;;;;;5019898;28;20029;-62
2021/10/11 06:21:00;;;;;;;12.23;8.07;;;;;;;;;;5017948;28;20041;-61
2021/10/11 06:23:26;;;;;;;11.93;6.80;;;;;;;;;;5020026;28;20022;-59
2021/10/11 06:25:51;;;;;;;14.27;8.33;;;;;;;;;;5019532;28;20466;-63
2021/10/11 06:28:18;;;;;;;10.60;6.80;;;;;;;;;;5020978;28;20040;-62
2021/10/11 06:30:45;;;;;;;12.50;7.13;;;;;;;;;;5020818;28;20035;-62
2021/10/11 06:33:11;;;;;;;11.00;7.23;;;;;;;;;;5021034;28;20460;-61
2021/10/11 06:35:36;;;;;;;11.37;6.73;;;;;;;;;;5019246;28;20036;-61
2021/10/11 06:38:01;;;;;;;12.83;7.90;;;;;;;;;;5021406;28;20033;-60
2021/10/11 06:40:27;;;;;;;12.53;6.90;;;;;;;;;;5020261;28;20116;-60
2021/10/11 06:42:52;;;;;;;13.73;7.00;;;;;;;;;;5022221;28;20476;-60
2021/10/11 06:45:17;;;;;;;13.73;6.47;;;;;;;;;;5020007;28;20024;-60
2021/10/11 06:47:43;;;;;;;14.83;7.50;;;;;;;;;;5017838;28;20032;-59
2021/10/11 06:50:08;;;;;;;12.50;7.90;;;;;;;;;;5018303;28;20144;-61
2021/10/11 06:52:33;;;;;;;10.00;6.90;;;;;;;;;;5019497;28;20041;-63
2021/10/11 06:54:59;;;;;;;10.40;6.57;;;;;;;;;;5023266;28;20026;-59
2021/10/11 06:57:24;;;;;;;12.87;7.23;;;;;;;;;;5021561;28;20029;-58
2021/10/11 06:59:49;;;;;;;16.10;7.77;;;;;;;;;;5019132;28;20029;-57
2021/10/11 07:02:17;;;;;;;11.67;6.87;;;;;;;;;;5016833;28;20570;-59
2021/10/11 07:04:42;;;;;;;17.03;7.03;;;;;;;;;;5018502;28;20028;-59
2021/10/11 07:07:07;;;;;;;14.33;8.27;;;;;;;;;;5017951;28;20034;-56
2021/10/11 07:09:33;;;;;;;12.87;7.70;;;;;;;;;;5017181;28;20026;-57
2021/10/11 07:11:58;;;;;;;12.70;8.10;;;;;;;;;;5018500;28;20524;-58
2021/10/11 07:14:23;;;;;;;12.97;6.77;;;;;;;;;;5017568;28;20033;-56
2021/10/11 07:16:48;;;;;;;16.90;8.67;;;;;;;;;;5017518;28;20013;-58
2021/10/11 07:19:14;;;;;;;11.80;6.60;;;;;;;;;;5021420;28;20032;-58
2021/10/11 07:21:40;;;;;;;13.93;7.00;;;;;;;;;;5021364;28;20168;-58
2021/10/11 07:24:05;;;;;;;14.63;7.83;;;;;;;;;;5023656;28;20083;-59
2021/10/11 07:26:31;;;;;;;11.90;7.00;;;;;;;;;;5018789;28;20029;-59
2021/10/11 07:28:56;;;;;;;12.82;7.15;;;;;;;;;;5024867;28;20226;-59
2021/10/11 07:31:21;;;;;;;9.83;6.77;;;;;;;;;;5019580;28;20032;-60
2021/10/11 07:33:47;;;;;;;16.53;6.83;;;;;;;;;;5020292;28;20109;-58
2021/10/11 07:36:12;;;;;;;11.70;6.80;;;;;;;;;;5021506;28;20025;-56
2021/10/11 07:38:37;;;;;;;10.13;6.38;;;;;;;;;;5019850;28;20037;-59
2021/10/11 07:41:02;;;;;;;9.10;6.90;;;;;;;;;;5021722;28;20120;-58
2021/10/11 07:43:28;;;;;;;14.87;8.37;;;;;;;;;;5021308;28;20032;-58
2021/10/11 07:45:53;;;;;;;12.57;7.27;;;;;;;;;;5023019;28;20064;-59
2021/10/11 07:48:18;;;;;;;9.30;6.82;;;;;;;;;;5021436;28;20440;-57
2021/10/11 07:50:44;;;;;;;12.55;7.20;;;;;;;;;;5021676;28;20474;-58
2021/10/11 07:53:09;;;;;;;12.17;6.70;;;;;;;;;;5020191;28;20349;-57
2021/10/11 07:55:34;;;;;;;14.00;8.60;;;;;;;;;;5021526;28;20034;-57
2021/10/11 07:57:59;;;;;;;13.93;7.00;;;;;;;;;;5022008;28;20025;-58
2021/10/11 08:00:25;;;;;;;12.52;7.43;;;;;;;;;;5023340;28;20064;-59
2021/10/11 08:02:50;;;;;;;14.37;7.57;;;;;;;;;;5026406;28;20029;-60
2021/10/11 08:05:16;;;;;;;10.57;7.63;;;;;;;;;;5026240;28;20146;-57
2021/10/11 08:07:41;;;;;;;14.07;7.10;;;;;;;;;;5023089;28;20073;-58
2021/10/11 08:10:07;;;;;;;10.32;6.68;;;;;;;;;;5023623;28;20029;-58
2021/10/11 08:12:32;;;;;;;11.02;6.68;;;;;;;;;;5021595;28;20171;-58
2021/10/11 08:14:58;;;;;;;14.40;7.10;;;;;;;;;;5019815;28;20021;-59
2021/10/11 08:17:23;;;;;;;9.27;5.72;;;;;;;;;;5010441;28;20662;-58
2021/10/11 08:19:48;;;;;;;8.35;5.35;;;;;;;;;;5020855;28;20087;-59
2021/10/11 08:22:14;;;;;;;8.57;6.95;;;;;;;;;;5015112;28;20521;-60
2021/10/11 08:24:39;;;;;;;11.73;6.32;;;;;;;;;;5020952;28;20112;-60
2021/10/11 08:27:04;;;;;;;9.55;6.63;;;;;;;;;;5020791;28;20045;-59
2021/10/11 08:29:32;;;;;;;8.73;6.15;;;;;;;;;;5022376;28;20582;-57
2021/10/11 08:31:57;;;;;;;16.92;6.18;;;;;;;;;;5021797;28;20038;-56
2021/10/11 08:34:22;;;;;;;9.68;5.82;;;;;;;;;;5021785;28;20029;-57
2021/10/11 08:36:48;;;;;;;9.57;6.07;;;;;;;;;;5019749;28;20034;-59
2021/10/11 08:39:13;;;;;;;12.38;7.32;;;;;;;;;;5020839;28;20654;-57
2021/10/11 08:41:39;;;;;;;11.68;7.30;;;;;;;;;;5021082;28;20460;-56
2021/10/11 08:44:04;;;;;;;9.13;6.25;;;;;;;;;;5022761;28;20045;-57
2021/10/11 08:46:29;;;;;;;7.50;5.90;;;;;;;;;;5026043;28;20030;-57
2021/10/11 08:48:54;;;;;;;13.15;7.30;;;;;;;;;;5025158;28;20055;-60
2021/10/11 08:51:20;;;;;;;10.57;6.13;;;;;;;;;;5024428;28;20061;-60
2021/10/11 08:53:45;;;;;;;15.65;7.07;;;;;;;;;;5024469;28;20443;-60
2021/10/11 08:56:11;;;;;;;15.73;7.93;;;;;;;;;;5024753;28;20032;-62
2021/10/11 08:58:43;;;;;;;11.38;6.93;;;;;;;;;;5024689;28;20018;-63
2021/10/11 09:01:08;;;;;;;8.88;6.07;;;;;;;;;;5024838;28;20286;-62
2021/10/11 09:03:33;;;;;;;12.30;7.97;;;;;;;;;;5021913;28;20457;-62
2021/10/11 09:06:06;;;;;;;9.55;6.63;;;;;;;;;;5024640;28;20033;-62
2021/10/11 09:08:32;;;;;;;15.15;6.00;;;;;;;;;;5024480;28;20025;-62
2021/10/11 09:10:59;;;;;;;8.95;6.75;;;;;;;;;;5023596;28;20033;-62
2021/10/11 09:13:38;;;;;;;10.43;6.85;;;;;;;;;;5022228;28;20048;-62
2021/10/11 09:16:28;;;;;;;11.13;6.00;;;;;;;;;;5023427;28;20110;-62
2021/10/11 09:18:56;;;;;;;13.27;6.22;;;;;;;;;;5024307;28;20028;-63
2021/10/11 09:21:28;;;;;;;11.50;6.68;;;;;;;;;;5023100;28;20033;-62
2021/10/11 09:24:01;;;;;;;10.15;7.30;;;;;;;;;;5016138;28;20030;-63
2021/10/11 09:26:26;;;;;;;9.95;6.57;;;;;;;;;;5014455;28;20458;-62
2021/10/11 09:28:55;;;;;;;7.15;5.40;;;;;;;;;;5016745;28;20014;-61
2021/10/11 09:31:39;;;;;;;13.75;9.05;;;;;;;;;;5025594;28;20499;-61
2021/10/11 09:34:04;;;;;;;10.35;7.60;;;;;;;;;;5020657;28;20029;-61
2021/10/11 09:36:30;;;;;;;9.93;6.70;;;;;;;;;;5018612;28;20028;-61
2021/10/11 09:38:59;;;;;;;10.65;6.25;;;;;;;;;;5020410;28;20400;-58
2021/10/11 09:41:24;;;;;;;7.30;5.63;;;;;;;;;;5020565;28;20041;-59
2021/10/11 09:43:49;;;;;;;7.53;6.35;;;;;;;;;;5021179;28;20021;-62
2021/10/11 09:46:15;;;;;;;11.40;6.05;;;;;;;;;;5021823;28;20032;-62
2021/10/11 09:48:50;;;;;;;9.00;5.72;;;;;;;;;;5021174;28;20064;-62
2021/10/11 09:51:16;;;;;;;11.75;5.97;;;;;;;;;;5019948;28;20057;-60
2021/10/11 09:53:41;;;;;;;8.50;5.78;;;;;;;;;;5017338;28;20041;-60
2021/10/11 09:56:07;;;;;;;10.43;5.53;;;;;;;;;;5021721;28;20543;-61
2021/10/11 09:58:32;;;;;;;7.43;6.07;;;;;;;;;;5019180;28;20034;-59
2021/10/11 10:00:58;;;;;;;9.00;5.53;;;;;;;;;;5019174;28;20083;-58
2021/10/11 10:03:23;;;;;;;7.57;5.10;;;;;;;;;;5020141;28;20029;-60
2021/10/11 10:05:51;;;;;;;9.98;5.47;;;;;;;;;;5024063;28;20036;-57
2021/10/11 10:08:25;;;;;;;7.57;5.10;;;;;;;;;;5019483;28;20109;-58
2021/10/11 10:10:55;;;;;;;6.75;5.50;;;;;;;;;;5018899;28;20029;-59
2021/10/11 10:13:21;;;;;;;9.20;5.15;;;;;;;;;;5019214;28;20037;-58
2021/10/11 10:15:46;;;;;;;7.97;5.25;;;;;;;;;;5019267;28;20099;-61
2021/10/11 10:18:13;;;;;;;7.32;4.72;;;;;;;;;;5016302;28;20022;-60
2021/10/11 10:20:52;;;;;;;8.38;5.00;;;;;;;;;;5024091;28;20442;-60
2021/10/11 10:23:23;;;;;;;8.80;4.65;;;;;;;;;;5023316;28;20416;-59
2021/10/11 10:25:49;;;;;;;14.02;7.07;;;;;;;;;;5021812;28;20037;-58
2021/10/11 10:28:15;;;;;;;7.60;4.97;;;;;;;;;;5021251;28;20068;-60
2021/10/11 10:30:41;;;;;;;7.63;4.53;;;;;;;;;;5022167;28;20030;-60
2021/10/11 10:33:11;;;;;;;9.57;5.63;;;;;;;;;;5020779;28;20016;-59
2021/10/11 10:35:43;;;;;;;6.32;4.60;;;;;;;;;;5022870;28;20112;-60
2021/10/11 10:38:19;;;;;;;6.95;4.80;;;;;;;;;;5026209;28;20399;-60
2021/10/11 10:40:45;;;;;;;6.15;5.22;;;;;;;;;;5021972;28;20033;-61
2021/10/11 10:43:12;;;;;;;7.88;4.90;;;;;;;;;;5017089;28;20026;-61
2021/10/11 10:45:38;;;;;;;7.88;5.55;;;;;;;;;;5017907;28;20296;-58
2021/10/11 10:48:24;;;;;;;6.85;4.90;;;;;;;;;;5015619;28;20026;-59
2021/10/11 10:50:55;;;;;;;12.60;4.70;;;;;;;;;;5019606;28;20099;-59
2021/10/11 10:53:22;;;;;;;11.57;4.75;;;;;;;;;;5023061;28;20510;-58
2021/10/11 10:55:47;;;;;;;7.07;5.25;;;;;;;;;;5017898;28;20033;-61
2021/10/11 10:58:13;;;;;;;9.45;5.00;;;;;;;;;;5018261;28;20025;-60
2021/10/11 11:00:39;;;;;;;6.65;5.18;;;;;;;;;;5018764;28;20024;-60
2021/10/11 11:03:07;;;;;;;7.47;5.43;;;;;;;;;;5019414;28;20116;-61
2021/10/11 11:05:32;;;;;;;8.15;5.47;;;;;;;;;;5019939;28;20033;-60
2021/10/11 11:07:58;;;;;;;9.68;5.30;;;;;;;;;;5020025;28;20021;-61
2021/10/11 11:10:25;;;;;;;10.35;4.93;;;;;;;;;;5028046;28;20467;-61
2021/10/11 11:12:53;;;;;;;7.18;4.75;;;;;;;;;;5027462;28;20041;-59
2021/10/11 11:15:29;;;;;;;7.97;4.63;;;;;;;;;;5024602;28;20439;-61
2021/10/11 11:17:55;;;;;;;9.35;5.35;;;;;;;;;;5021529;28;20150;-60
2021/10/11 11:20:26;;;;;;;6.15;5.05;;;;;;;;;;5021465;28;20033;-60
2021/10/11 11:22:52;;;;;;;9.05;4.60;;;;;;;;;;5020642;28;20026;-61
2021/10/11 11:25:24;;;;;;;8.65;4.95;;;;;;;;;;5017777;28;20036;-59
2021/10/11 11:27:53;;;;;;;6.70;4.53;;;;;;;;;;5019190;28;20431;-60
2021/10/11 11:30:18;;;;;;;6.40;4.50;;;;;;;;;;5019116;28;20072;-59
2021/10/11 11:32:45;;;;;;;10.45;4.85;;;;;;;;;;5017840;28;20588;-58
2021/10/11 11:35:21;;;;;;;6.35;4.72;;;;;;;;;;5018652;28;20379;-58
2021/10/11 11:37:47;;;;;;;8.52;5.38;;;;;;;;;;5019962;28;20030;-59
2021/10/11 11:40:14;;;;;;;5.80;4.15;;;;;;;;;;5023286;28;20080;-59
2021/10/11 11:42:40;;;;;;;7.55;4.82;;;;;;;;;;5027187;28;20029;-58
2021/10/11 11:45:05;;;;;;;7.57;4.40;;;;;;;;;;5024005;28;20022;-60
2021/10/11 11:47:30;;;;;;;8.35;4.78;;;;;;;;;;5021523;28;20043;-60
2021/10/11 11:49:56;;;;;;;7.82;4.70;;;;;;;;;;5023124;28;20054;-60
2021/10/11 11:52:21;;;;;;;6.78;4.90;;;;;;;;;;5021269;28;20078;-60
2021/10/11 11:54:54;;;;;;;7.75;5.28;;;;;;;;;;5017489;28;20152;-59
2021/10/11 11:57:20;;;;;;;5.07;4.57;;;;;;;;;;5023058;28;20048;-61
2021/10/11 11:59:46;;;;;;;5.57;4.32;;;;;;;;;;5019507;28;20033;-63
2021/10/11 12:02:11;;;;;;;8.63;4.75;;;;;;;;;;5016574;28;20030;-61
2021/10/11 12:04:37;;;;;;;9.38;4.55;;;;;;;;;;5015403;28;20032;-58
2021/10/11 12:07:03;;;;;;;9.52;4.95;;;;;;;;;;5020063;28;20105;-61
2021/10/11 12:09:28;;;;;;;5.32;4.63;;;;;;;;;;5019693;28;20464;-60
2021/10/11 12:12:00;;;;;;;7.25;4.88;;;;;;;;;;5015608;28;20102;-60
2021/10/11 12:14:26;;;;;;;8.18;4.45;;;;;;;;;;5016194;28;20036;-59
2021/10/11 12:16:58;;;;;;;9.13;4.47;;;;;;;;;;5018606;28;20032;-60
2021/10/11 12:19:28;;;;;;;6.90;5.00;;;;;;;;;;5021950;28;20029;-61
2021/10/11 12:21:53;;;;;;;11.20;5.35;;;;;;;;;;5022378;28;20032;-60
2021/10/11 12:24:19;;;;;;;6.63;3.67;;;;;;;;;;5022941;28;20030;-60
2021/10/11 12:27:04;;;;;;;5.60;4.15;;;;;;;;;;5024302;28;20029;-61
2021/10/11 12:29:30;;;;;;;5.78;4.00;;;;;;;;;;5022016;28;20534;-59
2021/10/11 12:31:57;;;;;;;6.38;4.22;;;;;;;;;;5023741;28;20368;-58
2021/10/11 12:34:26;;;;;;;5.93;4.20;;;;;;;;;;5022031;28;20108;-60
2021/10/11 12:36:52;;;;;;;8.45;3.97;;;;;;;;;;5024813;28;20036;-59
2021/10/11 12:39:27;;;;;;;4.85;4.25;;;;;;;;;;5019023;28;20018;-61
2021/10/11 12:41:52;;;;;;;5.15;4.00;;;;;;;;;;5018168;28;20036;-60
2021/10/11 12:44:23;;;;;;;7.05;4.57;;;;;;;;;;5019719;28;20033;-60
2021/10/11 12:46:48;;;;;;;10.65;4.78;;;;;;;;;;5022951;28;20371;-61
2021/10/11 12:49:15;;;;;;;8.10;4.40;;;;;;;;;;5020203;28;20029;-61
2021/10/11 12:51:40;;;;;;;7.45;4.70;;;;;;;;;;5019430;28;20933;-61
2021/10/11 12:54:10;;;;;;;10.25;6.80;;;;;;;;;;5020820;28;20097;-61
2021/10/11 12:56:36;;;;;;;6.80;5.05;;;;;;;;;;5018155;28;20022;-59
2021/10/11 12:59:03;;;;;;;9.40;5.47;;;;;;;;;;5022594;28;20126;-61
2021/10/11 13:01:29;;;;;;;8.52;5.57;;;;;;;;;;5022663;28;20534;-60
2021/10/11 13:03:55;;;;;;;7.57;5.22;;;;;;;;;;5019836;28;20025;-60
2021/10/11 13:06:30;;;;;;;9.15;5.40;;;;;;;;;;5019720;28;20037;-60
2021/10/11 13:08:56;;;;;;;7.43;5.30;;;;;;;;;;5023173;28;20025;-61
2021/10/11 13:11:22;;;;;;;8.73;5.65;;;;;;;;;;5020936;28;20534;-61
2021/10/11 13:13:48;;;;;;;9.73;5.32;;;;;;;;;;5017523;28;20032;-58
2021/10/11 13:16:13;;;;;;;7.07;5.30;;;;;;;;;;5018974;28;20055;-61
2021/10/11 13:18:39;;;;;;;9.60;5.35;;;;;;;;;;5021797;28;20036;-59
2021/10/11 13:21:05;;;;;;;9.88;5.07;;;;;;;;;;5021764;28;20451;-59
2021/10/11 13:23:30;;;;;;;10.48;5.53;;;;;;;;;;5018927;28;20025;-58
2021/10/11 13:25:55;;;;;;;9.68;6.13;;;;;;;;;;5018388;28;20080;-55
2021/10/11 13:28:21;;;;;;;9.52;5.72;;;;;;;;;;5019680;28;20026;-58
2021/10/11 14:28:10;;;;;;;9.93;5.75;;;;;;;;;;4999737;28;20091;-58
2021/10/11 16:06:03;;;;;;;10.85;6.60;;;;;;;;;;5007739;28;20034;-63
2021/10/11 16:08:28;;;;;;;10.68;6.07;;;;;;;;;;5016422;28;20460;-63
2021/10/11 16:10:53;;;;;;;7.68;5.57;;;;;;;;;;5008890;28;20088;-64
2021/10/11 16:13:19;;;;;;;16.85;6.50;;;;;;;;;;5023183;28;20033;-63
2021/10/11 16:15:45;;;;;;;10.65;6.57;;;;;;;;;;5005211;28;20045;-63
2021/10/11 16:18:11;;;;;;;5.95;5.35;;;;;;;;;;5023752;28;20014;-65
2021/10/11 16:20:38;;;;;;;8.20;5.75;;;;;;;;;;5007080;28;20049;-67
2021/10/11 16:23:04;;;;;;;10.73;5.18;;;;;;;;;;5001995;28;20041;-62
2021/10/11 16:25:29;;;;;;;8.05;6.03;;;;;;;;;;5003302;28;20017;-62
2021/10/11 16:27:54;;;;;;;8.85;5.60;;;;;;;;;;5002742;28;20720;-63
2021/10/11 16:30:20;;;;;;;10.23;5.10;;;;;;;;;;5005087;28;20049;-63
2021/10/11 16:32:45;;;;;;;5.97;4.93;;;;;;;;;;4997899;28;20034;-63
2021/10/11 16:35:10;;;;;;;10.18;4.88;;;;;;;;;;4996551;28;20555;-63
2021/10/11 16:37:35;;;;;;;9.82;5.90;;;;;;;;;;4995701;28;20030;-62
2021/10/11 16:40:02;;;;;;;9.77;5.90;;;;;;;;;;4991510;28;20045;-60
2021/10/11 16:42:29;;;;;;;7.05;4.85;;;;;;;;;;4990640;28;20532;-61
2021/10/11 16:44:54;;;;;;;8.65;5.15;;;;;;;;;;4997530;28;20034;-61
2021/10/11 16:47:20;;;;;;;7.30;5.00;;;;;;;;;;4993673;28;20026;-62
2021/10/11 16:49:45;;;;;;;6.18;4.72;;;;;;;;;;4997598;28;20651;-61
2021/10/11 16:52:10;;;;;;;4.60;4.20;;;;;;;;;;5012160;28;20369;-60
2021/10/11 16:54:35;;;;;;;6.97;4.80;;;;;;;;;;5010126;28;20049;-61
2021/10/11 16:57:01;;;;;;;4.30;3.50;;;;;;;;;;5019539;28;20029;-58
2021/10/11 16:59:27;;;;;;;3.53;3.22;;;;;;;;;;5024898;28;20025;-59